createdAt,value
2018-03-30T00:00:35.750Z,6.40
2018-03-30T00:05:36.697Z,6.50
2018-03-30T00:10:43.674Z,7.60
2018-03-30T00:15:44.671Z,6.57
2018-03-30T00:20:45.627Z,6.40
2018-03-30T00:25:46.588Z,6.43
2018-03-30T00:30:47.566Z,7.37
2018-03-30T00:35:48.509Z,6.27
2018-03-30T00:40:49.460Z,6.20
2018-03-30T00:45:50.421Z,8.03
2018-03-30T00:50:51.416Z,7.10
2018-03-30T00:55:52.403Z,7.87
2018-03-30T01:00:53.353Z,8.27
2018-03-30T01:05:54.312Z,9.00
2018-03-30T01:10:55.264Z,7.90
2018-03-30T01:15:56.217Z,7.33
2018-03-30T01:20:57.148Z,6.00
2018-03-30T01:25:58.126Z,5.53
2018-03-30T01:30:59.091Z,6.87
2018-03-30T01:36:00.033Z,5.90
2018-03-30T01:41:00.972Z,6.67
2018-03-30T01:46:01.936Z,7.80
2018-03-30T01:51:02.907Z,6.77
2018-03-30T01:56:03.909Z,6.40
2018-03-30T02:01:04.886Z,6.47
2018-03-30T02:06:05.826Z,6.13
2018-03-30T02:11:06.766Z,6.60
2018-03-30T02:16:07.745Z,6.80
2018-03-30T02:21:08.710Z,6.50
2018-03-30T02:26:09.654Z,7.10
2018-03-30T02:31:10.608Z,7.40
2018-03-30T02:36:11.560Z,7.37
2018-03-30T02:41:12.518Z,6.90
2018-03-30T02:46:13.476Z,7.13
2018-03-30T02:51:14.428Z,6.87
2018-03-30T02:56:15.414Z,6.97
2018-03-30T03:01:16.366Z,6.70
2018-03-30T03:06:17.319Z,7.13
2018-03-30T03:11:18.261Z,7.20
2018-03-30T03:16:19.223Z,6.50
2018-03-30T03:21:20.173Z,5.87
2018-03-30T03:26:21.141Z,8.57
2018-03-30T03:31:22.094Z,7.20
2018-03-30T03:36:23.049Z,7.97
2018-03-30T03:41:23.980Z,7.00
2018-03-30T03:46:24.954Z,7.70
2018-03-30T03:51:25.904Z,7.73
2018-03-30T03:56:26.915Z,7.57
2018-03-30T04:01:27.856Z,7.90
2018-03-30T04:06:28.808Z,7.50
2018-03-30T04:11:29.745Z,7.60
2018-03-30T04:16:30.698Z,7.77
2018-03-30T04:21:31.650Z,8.57
2018-03-30T04:26:32.602Z,8.30
2018-03-30T04:31:33.549Z,8.17
2018-03-30T04:36:34.491Z,8.30
2018-03-30T04:41:35.417Z,8.17
2018-03-30T04:46:36.375Z,9.43
2018-03-30T04:51:37.344Z,8.43
2018-03-30T04:56:38.321Z,8.73
2018-03-30T05:01:39.276Z,8.87
2018-03-30T05:06:40.225Z,9.27
2018-03-30T05:11:41.157Z,8.70
2018-03-30T05:16:42.105Z,9.60
2018-03-30T05:21:43.074Z,8.70
2018-03-30T05:26:44.021Z,9.50
2018-03-30T05:31:45.004Z,9.40
2018-03-30T05:36:45.967Z,8.53
2018-03-30T05:41:46.915Z,9.03
2018-03-30T05:46:47.880Z,9.60
2018-03-30T05:51:48.844Z,10.77
2018-03-30T05:56:49.834Z,9.43
2018-03-30T06:01:50.789Z,9.37
2018-03-30T06:06:51.736Z,8.90
2018-03-30T06:11:52.707Z,8.87
2018-03-30T06:16:53.653Z,8.90
2018-03-30T06:21:54.620Z,8.80
2018-03-30T06:26:55.595Z,7.03
2018-03-30T06:31:56.568Z,7.40
2018-03-30T06:36:57.542Z,7.00
2018-03-30T06:41:58.504Z,7.50
2018-03-30T06:46:59.834Z,8.33
2018-03-30T06:52:00.837Z,7.70
2018-03-30T06:57:02.866Z,7.50
2018-03-30T07:02:03.841Z,8.93
2018-03-30T07:07:04.796Z,7.40
2018-03-30T07:12:05.767Z,6.70
2018-03-30T07:17:06.745Z,7.30
2018-03-30T07:22:07.691Z,7.40
2018-03-30T07:27:08.662Z,7.73
2018-03-30T07:32:09.609Z,7.30
2018-03-30T07:37:10.571Z,6.77
2018-03-30T07:42:11.537Z,6.80
2018-03-30T07:47:12.551Z,6.37
2018-03-30T07:52:13.490Z,6.10
2018-03-30T07:57:14.479Z,6.30
2018-03-30T08:02:15.464Z,6.80
2018-03-30T08:07:16.437Z,6.00
2018-03-30T08:12:17.418Z,6.33
2018-03-30T08:17:18.465Z,6.50
2018-03-30T08:22:19.442Z,6.27
2018-03-30T08:27:20.380Z,6.80
2018-03-30T08:32:21.397Z,6.57
